createdAt,value
2023-01-08T00:01:09.434Z,8.00
2023-01-08T00:03:38.630Z,8.00
2023-01-08T00:06:09.123Z,8.00
2023-01-08T00:08:37.088Z,8.00
2023-01-08T00:11:06.706Z,8.00
2023-01-08T00:13:35.302Z,8.00
2023-01-08T00:16:07.497Z,8.00
2023-01-08T00:18:35.940Z,8.00
2023-01-08T00:21:04.310Z,8.00
2023-01-08T00:23:32.707Z,8.00
2023-01-08T00:26:02.372Z,8.00
2023-01-08T00:28:31.946Z,8.00
2023-01-08T00:31:03.447Z,8.00
2023-01-08T00:33:32.558Z,8.00
2023-01-08T00:36:00.809Z,8.00
2023-01-08T00:38:29.467Z,8.00
2023-01-08T00:40:57.520Z,8.10
2023-01-08T00:43:25.484Z,8.10
2023-01-08T00:45:54.954Z,8.10
2023-01-08T00:48:24.798Z,8.10
2023-01-08T00:50:54.057Z,8.10
2023-01-08T00:53:23.415Z,8.10
2023-01-08T00:55:51.409Z,8.10
2023-01-08T00:58:19.411Z,8.10
2023-01-08T01:00:47.465Z,8.10
2023-01-08T01:03:16.956Z,8.10
2023-01-08T01:05:44.931Z,8.10
2023-01-08T01:08:13.025Z,8.10
2023-01-08T01:10:41.171Z,8.10
2023-01-08T01:13:09.367Z,8.10
2023-01-08T01:15:37.371Z,8.10
2023-01-08T01:18:05.473Z,8.10
2023-01-08T01:20:34.861Z,8.10
2023-01-08T01:23:02.865Z,8.10
2023-01-08T01:25:30.888Z,8.10
2023-01-08T01:27:58.879Z,8.10
2023-01-08T01:30:26.886Z,8.10
2023-01-08T01:32:54.866Z,8.10
2023-01-08T01:35:22.912Z,8.10
2023-01-08T01:37:52.272Z,8.10
2023-01-08T01:40:20.296Z,8.10
2023-01-08T01:42:49.338Z,8.20
2023-01-08T01:45:21.688Z,8.20
2023-01-08T01:47:54.609Z,8.20
2023-01-08T01:50:28.930Z,8.20
2023-01-08T01:53:10.241Z,8.20
2023-01-08T01:55:40.023Z,8.20
2023-01-08T01:58:13.510Z,8.20
2023-01-08T02:00:42.404Z,8.20
2023-01-08T02:03:11.698Z,8.20
2023-01-08T02:05:47.781Z,8.20
2023-01-08T02:08:25.393Z,8.20
2023-01-08T02:10:57.834Z,8.20
2023-01-08T02:13:30.709Z,8.20
2023-01-08T02:16:02.493Z,8.20
2023-01-08T02:18:38.137Z,8.20
2023-01-08T02:21:11.259Z,8.20
2023-01-08T02:23:47.683Z,8.20
2023-01-08T02:26:23.041Z,8.20
2023-01-08T02:28:54.879Z,8.20
2023-01-08T02:31:25.812Z,8.20
2023-01-08T02:33:53.932Z,8.20
2023-01-08T02:36:39.084Z,8.10
2023-01-08T02:39:21.529Z,8.10
2023-01-08T02:41:58.139Z,8.10
2023-01-08T02:44:35.846Z,8.10
2023-01-08T02:47:06.852Z,8.10
2023-01-08T02:49:39.365Z,8.00
2023-01-08T02:52:09.532Z,8.00
2023-01-08T02:54:39.517Z,8.00
2023-01-08T02:57:14.924Z,8.00
2023-01-08T02:59:45.205Z,8.00
2023-01-08T03:02:14.155Z,7.90
2023-01-08T03:04:50.273Z,7.90
2023-01-08T03:07:18.391Z,7.90
2023-01-08T03:09:46.636Z,7.90
2023-01-08T03:12:22.167Z,7.90
2023-01-08T03:14:57.057Z,7.80
2023-01-08T03:17:30.655Z,7.80
2023-01-08T03:20:02.856Z,7.80
2023-01-08T03:22:32.838Z,7.80
2023-01-08T03:25:01.536Z,7.80
2023-01-08T03:27:34.902Z,7.70
2023-01-08T03:30:04.692Z,7.70
2023-01-08T03:32:33.888Z,7.70
2023-01-08T03:35:04.075Z,7.70
2023-01-08T03:37:36.734Z,7.70
2023-01-08T03:40:10.353Z,7.70
2023-01-08T03:42:39.956Z,7.60
2023-01-08T03:45:09.161Z,7.60
2023-01-08T03:47:39.294Z,7.60
2023-01-08T03:50:12.150Z,7.60
2023-01-08T03:52:40.178Z,7.60
2023-01-08T03:55:08.813Z,7.70
2023-01-08T03:57:36.844Z,7.70
2023-01-08T04:00:08.031Z,7.70
2023-01-08T04:02:36.129Z,7.70
2023-01-08T04:05:04.256Z,7.70
2023-01-08T04:07:32.328Z,7.70
2023-01-08T04:10:00.369Z,7.70
2023-01-08T04:12:28.457Z,7.70
2023-01-08T04:14:56.479Z,7.70
2023-01-08T04:17:25.876Z,7.70
2023-01-08T04:19:53.906Z,7.70
2023-01-08T04:22:21.967Z,7.70
2023-01-08T04:24:50.043Z,7.70
2023-01-08T04:27:18.162Z,7.70
2023-01-08T04:29:46.201Z,7.70
2023-01-08T04:32:14.253Z,7.70
2023-01-08T04:34:43.671Z,7.70
2023-01-08T04:37:11.728Z,7.70
2023-01-08T04:39:39.840Z,7.70
2023-01-08T04:42:07.893Z,7.70
2023-01-08T04:44:36.011Z,7.70
2023-01-08T04:47:04.466Z,7.70
2023-01-08T04:49:32.504Z,7.70
2023-01-08T04:52:01.938Z,7.70
2023-01-08T04:54:30.031Z,7.70
2023-01-08T04:56:58.049Z,7.70
2023-01-08T04:59:26.097Z,7.70
2023-01-08T05:01:54.265Z,7.70
2023-01-08T05:04:22.393Z,7.70
2023-01-08T05:06:50.532Z,7.70
2023-01-08T05:09:19.961Z,7.70
2023-01-08T05:11:47.989Z,7.60
2023-01-08T05:14:16.231Z,7.70
2023-01-08T05:16:44.272Z,7.60
2023-01-08T05:19:12.357Z,7.60
2023-01-08T05:21:40.433Z,7.60
2023-01-08T05:24:09.440Z,7.60
2023-01-08T05:26:38.867Z,7.60
2023-01-08T05:29:06.918Z,7.60
2023-01-08T05:31:34.992Z,7.60
2023-01-08T05:34:03.162Z,7.60
2023-01-08T05:36:31.691Z,7.60
2023-01-08T05:38:59.745Z,7.60
2023-01-08T05:41:27.871Z,7.60
2023-01-08T05:43:57.287Z,7.50
2023-01-08T05:46:25.354Z,7.50
2023-01-08T05:48:53.436Z,7.50
2023-01-08T05:51:21.484Z,7.50
2023-01-08T05:53:49.505Z,7.50
2023-01-08T05:56:17.569Z,7.50
2023-01-08T05:58:45.661Z,7.50
2023-01-08T06:01:16.881Z,7.50
2023-01-08T06:03:45.236Z,7.50
2023-01-08T06:06:13.955Z,7.40
2023-01-08T06:08:42.031Z,7.50
2023-01-08T06:11:12.174Z,7.40
2023-01-08T06:13:43.442Z,7.40
2023-01-08T06:16:11.955Z,7.50
2023-01-08T06:18:41.794Z,7.50
2023-01-08T06:21:09.900Z,7.50
2023-01-08T06:23:37.899Z,7.50
2023-01-08T06:26:06.264Z,7.50
2023-01-08T06:28:34.618Z,7.50
2023-01-08T06:31:03.594Z,7.50
2023-01-08T06:33:32.403Z,7.50
2023-01-08T06:36:04.390Z,7.50
2023-01-08T06:38:33.449Z,7.50
2023-01-08T06:41:04.748Z,7.50
2023-01-08T06:43:32.803Z,7.50
2023-01-08T06:46:04.793Z,7.50
2023-01-08T06:48:32.888Z,7.50
2023-01-08T06:51:02.637Z,7.50
2023-01-08T06:53:31.168Z,7.50
2023-01-08T06:55:59.288Z,7.50
2023-01-08T06:58:28.223Z,7.60
2023-01-08T07:00:56.401Z,7.60
2023-01-08T07:03:24.484Z,7.60
2023-01-08T07:05:52.829Z,7.60
2023-01-08T07:08:22.243Z,7.60
2023-01-08T07:10:50.967Z,7.60
2023-01-08T07:13:18.996Z,7.60
2023-01-08T07:15:47.105Z,7.60
2023-01-08T07:18:15.207Z,7.60
2023-01-08T07:20:43.234Z,7.60
2023-01-08T07:23:12.584Z,7.60
2023-01-08T07:25:41.980Z,7.70
2023-01-08T07:28:12.806Z,7.70
2023-01-08T07:30:40.930Z,7.70
2023-01-08T07:33:09.004Z,7.70
2023-01-08T07:35:38.862Z,7.70
2023-01-08T07:38:06.963Z,7.70
2023-01-08T07:40:35.043Z,7.70
2023-01-08T07:43:06.695Z,7.70
2023-01-08T07:45:34.749Z,7.70
2023-01-08T07:48:02.770Z,7.70
2023-01-08T07:50:30.783Z,7.70
2023-01-08T07:52:59.691Z,7.70
2023-01-08T07:55:28.745Z,7.70
2023-01-08T07:57:56.896Z,7.70
2023-01-08T08:00:26.297Z,7.70
2023-01-08T08:02:54.426Z,7.70
2023-01-08T08:05:22.602Z,7.70
2023-01-08T08:07:50.722Z,7.70
2023-01-08T08:10:18.849Z,7.80
2023-01-08T08:12:47.132Z,7.80
2023-01-08T08:15:15.582Z,7.80
2023-01-08T08:17:47.937Z,7.80
2023-01-08T08:20:16.659Z,7.80
2023-01-08T08:22:44.822Z,7.80
2023-01-08T08:25:15.203Z,7.80
2023-01-08T08:27:43.931Z,7.80
2023-01-08T08:30:13.232Z,7.80
2023-01-08T08:32:41.318Z,7.80
2023-01-08T08:35:11.329Z,7.80
2023-01-08T08:37:39.346Z,7.90
2023-01-08T08:40:08.863Z,7.80
2023-01-08T08:42:36.935Z,7.90
2023-01-08T08:45:06.136Z,7.90
2023-01-08T08:47:34.226Z,7.90
2023-01-08T08:50:03.163Z,7.90
2023-01-08T08:52:33.090Z,7.90
2023-01-08T08:55:01.320Z,7.90
2023-01-08T08:57:29.358Z,7.90
2023-01-08T08:59:58.205Z,7.90
2023-01-08T09:02:27.643Z,7.90
2023-01-08T09:04:55.902Z,7.90
2023-01-08T09:07:23.992Z,8.00
2023-01-08T09:09:53.408Z,7.90
2023-01-08T09:12:21.486Z,8.00
2023-01-08T09:14:50.219Z,8.00
2023-01-08T09:17:18.536Z,8.00
2023-01-08T09:19:46.600Z,8.00
2023-01-08T09:22:14.704Z,8.00
2023-01-08T09:24:42.748Z,8.00
2023-01-08T09:27:12.129Z,8.00
2023-01-08T09:29:40.121Z,8.00
2023-01-08T09:32:09.083Z,8.10
2023-01-08T09:34:37.229Z,8.10
2023-01-08T09:37:06.217Z,8.10
2023-01-08T09:39:34.691Z,8.10
2023-01-08T09:42:05.847Z,8.20
2023-01-08T09:44:39.801Z,8.20
2023-01-08T09:47:18.864Z,8.20
2023-01-08T09:49:48.027Z,8.20
2023-01-08T09:52:17.040Z,8.20
2023-01-08T09:54:45.130Z,8.20
2023-01-08T09:57:17.091Z,8.30
2023-01-08T09:59:48.005Z,8.30
2023-01-08T10:02:18.037Z,8.30
2023-01-08T10:04:46.424Z,8.30
2023-01-08T10:07:22.305Z,8.40
2023-01-08T10:09:51.379Z,8.40
2023-01-08T10:12:25.610Z,8.40
2023-01-08T10:15:00.003Z,8.50
2023-01-08T10:17:32.038Z,8.50
2023-01-08T10:20:00.162Z,8.50
2023-01-08T10:22:33.921Z,8.50
2023-01-08T10:25:08.328Z,8.50
2023-01-08T10:27:46.588Z,8.50
2023-01-08T10:30:19.293Z,8.60
2023-01-08T10:32:54.625Z,8.60
2023-01-08T10:35:26.997Z,8.60
2023-01-08T10:37:55.451Z,8.60
2023-01-08T10:40:29.580Z,8.60
2023-01-08T10:42:59.766Z,8.60
2023-01-08T10:45:30.063Z,8.60
2023-01-08T10:48:01.566Z,8.60
2023-01-08T10:50:31.414Z,8.60
2023-01-08T10:53:03.237Z,8.70
2023-01-08T10:55:33.669Z,8.70
2023-01-08T10:58:05.992Z,8.70
2023-01-08T11:00:37.463Z,8.70
2023-01-08T11:03:08.614Z,8.70
2023-01-08T11:05:38.913Z,8.80
2023-01-08T11:08:09.350Z,8.80
2023-01-08T11:10:38.798Z,8.80
2023-01-08T11:13:09.088Z,8.80
2023-01-08T11:15:41.323Z,8.80
2023-01-08T11:18:17.728Z,8.80
2023-01-08T11:20:47.199Z,8.90
2023-01-08T11:23:21.684Z,8.90
2023-01-08T11:25:56.871Z,8.90
2023-01-08T11:28:32.696Z,8.90
2023-01-08T11:31:11.838Z,8.90
2023-01-08T11:33:41.772Z,8.90
2023-01-08T11:36:15.019Z,9.00
2023-01-08T11:38:43.384Z,9.00
2023-01-08T11:41:25.749Z,9.00
2023-01-08T11:44:08.528Z,9.00
2023-01-08T11:46:46.975Z,9.00
2023-01-08T11:49:33.161Z,9.10
2023-01-08T11:52:11.309Z,9.10
2023-01-08T11:55:10.167Z,9.10
2023-01-08T11:57:49.170Z,9.10
2023-01-08T12:00:36.887Z,9.10
2023-01-08T12:03:17.346Z,9.10
2023-01-08T12:05:49.344Z,9.20
2023-01-08T12:08:25.064Z,9.20
2023-01-08T12:11:04.542Z,9.20
2023-01-08T12:13:49.066Z,9.20
2023-01-08T12:16:29.984Z,9.20
2023-01-08T12:19:18.294Z,9.20
2023-01-08T12:21:59.131Z,9.20
2023-01-08T12:24:47.384Z,9.20
2023-01-08T12:27:48.409Z,9.20
2023-01-08T12:30:25.567Z,9.20
2023-01-08T12:32:57.670Z,9.20
2023-01-08T12:35:30.275Z,9.20
2023-01-08T12:38:03.310Z,9.20
2023-01-08T12:40:34.872Z,9.20
2023-01-08T12:43:15.018Z,9.20
2023-01-08T12:45:46.305Z,9.30
2023-01-08T12:48:17.796Z,9.30
2023-01-08T12:51:02.835Z,9.30
2023-01-08T12:53:44.919Z,9.30
2023-01-08T12:56:17.471Z,9.30
2023-01-08T12:59:00.110Z,9.20
2023-01-08T13:01:37.792Z,9.20
2023-01-08T13:04:08.980Z,9.30
2023-01-08T13:06:38.859Z,9.30
2023-01-08T13:09:06.987Z,9.30
2023-01-08T13:11:37.553Z,9.30
2023-01-08T13:14:07.748Z,9.30
2023-01-08T13:16:39.589Z,9.30
2023-01-08T13:19:22.131Z,9.30
2023-01-08T13:21:55.828Z,9.30
2023-01-08T13:24:31.888Z,9.20
2023-01-08T13:27:12.802Z,9.20
2023-01-08T13:29:43.651Z,9.20
2023-01-08T13:32:43.912Z,9.20
2023-01-08T13:35:26.417Z,9.10
2023-01-08T13:38:15.035Z,9.10
2023-01-08T13:40:58.195Z,9.10
2023-01-08T13:43:30.413Z,9.10
2023-01-08T13:46:15.321Z,9.10
2023-01-08T13:48:51.579Z,9.00
2023-01-08T13:51:43.803Z,9.00
2023-01-08T13:54:21.950Z,9.00
2023-01-08T13:56:55.153Z,9.00
2023-01-08T13:59:35.151Z,9.00
2023-01-08T14:02:03.413Z,8.90
2023-01-08T14:04:31.534Z,8.90
2023-01-08T14:07:15.272Z,8.90
2023-01-08T14:09:44.683Z,8.90
2023-01-08T14:12:15.982Z,8.80
2023-01-08T14:14:48.751Z,8.80
2023-01-08T14:17:18.333Z,8.80
2023-01-08T14:19:46.979Z,8.80
2023-01-08T14:22:20.640Z,8.80
2023-01-08T14:24:56.423Z,8.70
2023-01-08T14:27:26.942Z,8.70
2023-01-08T14:29:55.574Z,8.70
2023-01-08T14:32:25.381Z,8.70
2023-01-08T14:34:55.022Z,8.70
2023-01-08T14:37:23.258Z,8.60
2023-01-08T14:39:54.718Z,8.60
2023-01-08T14:42:44.095Z,8.60
2023-01-08T14:45:19.342Z,8.60
2023-01-08T14:47:49.965Z,8.50
2023-01-08T14:50:25.154Z,8.50
2023-01-08T14:52:56.002Z,8.50
2023-01-08T14:55:26.747Z,8.40
2023-01-08T14:57:56.888Z,8.40
2023-01-08T15:00:28.184Z,8.40
2023-01-08T15:02:56.679Z,8.30
2023-01-08T15:05:29.099Z,8.30
2023-01-08T15:08:01.021Z,8.30
2023-01-08T15:10:39.853Z,8.30
2023-01-08T15:13:08.674Z,8.30
2023-01-08T15:15:42.792Z,8.20
2023-01-08T15:18:13.780Z,8.20
2023-01-08T15:20:45.581Z,8.20
2023-01-08T15:23:29.157Z,8.10
2023-01-08T15:25:58.687Z,8.10
2023-01-08T15:28:27.474Z,8.10
2023-01-08T15:30:57.419Z,8.10
2023-01-08T15:33:26.719Z,8.00
2023-01-08T15:35:54.948Z,8.00
2023-01-08T15:38:24.800Z,8.00
2023-01-08T15:40:54.223Z,8.00
2023-01-08T15:43:22.849Z,8.00
2023-01-08T15:45:51.345Z,7.90
2023-01-08T15:48:19.488Z,7.90
2023-01-08T15:50:47.514Z,7.90
2023-01-08T15:53:22.380Z,7.90
2023-01-08T15:55:50.672Z,7.90
2023-01-08T15:58:19.152Z,7.80
2023-01-08T16:00:48.633Z,7.80
2023-01-08T16:03:17.351Z,7.80
2023-01-08T16:05:45.509Z,7.80
2023-01-08T16:08:13.654Z,7.70
2023-01-08T16:10:41.702Z,7.70
2023-01-08T16:13:11.851Z,7.70
2023-01-08T16:15:40.705Z,7.70
2023-01-08T16:18:10.122Z,7.70
2023-01-08T16:20:40.310Z,7.70
2023-01-08T16:23:08.750Z,7.80
2023-01-08T16:25:39.301Z,7.80
2023-01-08T16:28:07.307Z,7.80
2023-01-08T16:30:36.644Z,7.80
2023-01-08T16:33:05.730Z,7.80
2023-01-08T16:35:35.103Z,7.90
2023-01-08T16:38:03.186Z,7.90
2023-01-08T16:40:31.249Z,7.90
2023-01-08T16:43:02.599Z,7.90
2023-01-08T16:45:30.656Z,8.00
2023-01-08T16:47:58.695Z,8.00
2023-01-08T16:50:26.751Z,8.00
2023-01-08T16:52:56.159Z,8.00
2023-01-08T16:55:24.403Z,8.00
2023-01-08T16:57:54.597Z,8.10
2023-01-08T17:00:23.802Z,8.10
2023-01-08T17:02:51.843Z,8.10
2023-01-08T17:05:19.891Z,8.10
2023-01-08T17:07:51.262Z,8.10
2023-01-08T17:10:20.750Z,8.20
2023-01-08T17:12:48.784Z,8.20
2023-01-08T17:15:16.912Z,8.20
2023-01-08T17:17:44.970Z,8.20
2023-01-08T17:20:13.451Z,8.20
2023-01-08T17:22:41.488Z,8.20
2023-01-08T17:25:10.403Z,8.20
2023-01-08T17:27:39.949Z,8.20
2023-01-08T17:30:10.560Z,8.20
2023-01-08T17:32:38.780Z,8.30
2023-01-08T17:35:07.637Z,8.30
2023-01-08T17:37:35.934Z,8.30
2023-01-08T17:40:04.813Z,8.30
2023-01-08T17:42:32.850Z,8.30
2023-01-08T17:45:05.631Z,8.30
2023-01-08T17:47:35.043Z,8.30
2023-01-08T17:50:05.669Z,8.30
2023-01-08T17:52:33.867Z,8.30
2023-01-08T17:55:01.915Z,8.20
2023-01-08T17:57:31.595Z,8.20
2023-01-08T18:00:01.264Z,8.20
2023-01-08T18:02:29.461Z,8.20
2023-01-08T18:04:58.547Z,8.20
2023-01-08T18:07:26.596Z,8.20
2023-01-08T18:09:54.656Z,8.10
2023-01-08T18:12:22.693Z,8.10
2023-01-08T18:14:50.702Z,8.10
2023-01-08T18:17:20.204Z,8.10
2023-01-08T18:19:48.727Z,8.00
2023-01-08T18:22:16.804Z,8.00
2023-01-08T18:24:44.829Z,8.00
2023-01-08T18:27:12.873Z,8.00
2023-01-08T18:29:40.977Z,8.00
2023-01-08T18:32:09.011Z,8.00
2023-01-08T18:34:38.985Z,8.00
2023-01-08T18:37:07.045Z,7.90
2023-01-08T18:39:35.076Z,7.90
2023-01-08T18:42:20.678Z,7.90
2023-01-08T18:44:52.516Z,7.90
2023-01-08T18:47:20.720Z,7.90
2023-01-08T18:49:52.149Z,7.90
2023-01-08T18:52:20.167Z,7.80
2023-01-08T18:54:48.195Z,7.80
2023-01-08T18:57:16.261Z,7.80
2023-01-08T18:59:44.408Z,7.80
2023-01-08T19:02:19.501Z,7.80
2023-01-08T19:04:49.242Z,7.80
2023-01-08T19:07:17.761Z,7.80
2023-01-08T19:09:45.873Z,7.70
2023-01-08T19:12:13.930Z,7.70
2023-01-08T19:14:42.122Z,7.70
2023-01-08T19:17:10.206Z,7.60
2023-01-08T19:19:38.432Z,7.70
2023-01-08T19:22:07.882Z,7.60
2023-01-08T19:24:37.016Z,7.60
2023-01-08T19:27:05.229Z,7.60
2023-01-08T19:29:33.262Z,7.60
2023-01-08T19:32:01.332Z,7.60
2023-01-08T19:34:29.362Z,7.50
2023-01-08T19:36:57.494Z,7.50
2023-01-08T19:39:29.785Z,7.50
2023-01-08T19:42:15.566Z,7.40
2023-01-08T19:44:43.670Z,7.40
2023-01-08T19:47:12.349Z,7.40
2023-01-08T19:49:42.848Z,7.40
2023-01-08T19:52:10.852Z,7.40
2023-01-08T19:54:40.272Z,7.40
2023-01-08T19:57:08.415Z,7.30
2023-01-08T19:59:36.729Z,7.30
2023-01-08T20:02:04.873Z,7.30
2023-01-08T20:04:33.384Z,7.30
2023-01-08T20:07:01.414Z,7.20
2023-01-08T20:09:29.892Z,7.20
2023-01-08T20:11:59.411Z,7.20
2023-01-08T20:14:27.519Z,7.20
2023-01-08T20:16:55.564Z,7.20
2023-01-08T20:19:23.904Z,7.20
2023-01-08T20:21:51.955Z,7.10
2023-01-08T20:24:20.005Z,7.10
2023-01-08T20:26:48.527Z,7.10
2023-01-08T20:29:18.361Z,7.00
2023-01-08T20:31:46.695Z,7.00
2023-01-08T20:34:16.410Z,7.00
2023-01-08T20:36:45.763Z,7.00
2023-01-08T20:39:16.354Z,6.90
2023-01-08T20:41:50.322Z,7.00
2023-01-08T20:44:25.113Z,6.90
2023-01-08T20:46:53.160Z,6.90
2023-01-08T20:49:21.358Z,6.90
2023-01-08T20:51:58.048Z,6.90
2023-01-08T20:54:27.174Z,6.90
2023-01-08T20:56:57.151Z,6.80
2023-01-08T20:59:26.967Z,6.80
2023-01-08T21:01:55.260Z,6.80
2023-01-08T21:04:24.508Z,6.80
2023-01-08T21:06:52.720Z,6.80
2023-01-08T21:09:20.774Z,6.70
2023-01-08T21:11:49.242Z,6.70
2023-01-08T21:14:18.400Z,6.60
2023-01-08T21:16:48.241Z,6.60
2023-01-08T21:19:16.509Z,6.60
2023-01-08T21:21:45.781Z,6.60
2023-01-08T21:24:15.165Z,6.50
2023-01-08T21:26:45.179Z,6.50
2023-01-08T21:29:13.706Z,6.50
2023-01-08T21:31:43.897Z,6.50
2023-01-08T21:34:13.917Z,6.50
2023-01-08T21:36:42.081Z,6.50
2023-01-08T21:39:11.724Z,6.50
2023-01-08T21:41:57.388Z,6.50
2023-01-08T21:44:44.983Z,6.50
2023-01-08T21:47:17.736Z,6.40
2023-01-08T21:49:47.762Z,6.40
2023-01-08T21:52:33.521Z,6.30
2023-01-08T21:55:01.827Z,6.30
2023-01-08T21:57:30.058Z,6.30
2023-01-08T21:59:59.187Z,6.20
2023-01-08T22:02:27.795Z,6.30
2023-01-08T22:04:58.542Z,6.30
2023-01-08T22:07:26.976Z,6.20
2023-01-08T22:09:55.251Z,6.30
2023-01-08T22:12:24.212Z,6.20
2023-01-08T22:14:53.656Z,6.20
2023-01-08T22:17:22.132Z,6.20
2023-01-08T22:19:50.229Z,6.20
2023-01-08T22:22:19.647Z,6.20
2023-01-08T22:24:47.686Z,6.20
2023-01-08T22:27:15.875Z,6.20
2023-01-08T22:29:43.904Z,6.20
2023-01-08T22:32:12.050Z,6.20
2023-01-08T22:34:40.654Z,6.20
2023-01-08T22:37:08.953Z,6.20
2023-01-08T22:39:38.419Z,6.20
2023-01-08T22:42:06.598Z,6.20
2023-01-08T22:44:34.949Z,6.20
2023-01-08T22:47:03.014Z,6.20
2023-01-08T22:49:31.065Z,6.20
2023-01-08T22:51:59.851Z,6.10
2023-01-08T22:54:27.873Z,6.20
2023-01-08T22:56:57.277Z,6.10
2023-01-08T22:59:25.344Z,6.10
2023-01-08T23:01:53.406Z,6.10
2023-01-08T23:04:21.425Z,6.10
2023-01-08T23:06:49.507Z,6.10
2023-01-08T23:09:17.562Z,6.10
2023-01-08T23:11:45.651Z,6.10
2023-01-08T23:14:16.864Z,6.10
2023-01-08T23:16:44.966Z,6.10
2023-01-08T23:19:13.981Z,6.10
2023-01-08T23:21:42.014Z,6.10
2023-01-08T23:24:13.501Z,6.10
2023-01-08T23:26:41.996Z,6.10
2023-01-08T23:29:10.607Z,6.00
2023-01-08T23:31:40.402Z,6.00
2023-01-08T23:34:09.036Z,6.00
2023-01-08T23:36:37.056Z,6.00
2023-01-08T23:39:06.259Z,6.00
2023-01-08T23:41:35.238Z,6.00
2023-01-08T23:44:05.476Z,6.00
2023-01-08T23:46:33.832Z,6.00
2023-01-08T23:49:03.249Z,6.00
2023-01-08T23:51:31.683Z,5.90
2023-01-08T23:53:59.792Z,6.00
2023-01-08T23:56:28.063Z,5.90
2023-01-08T23:58:56.156Z,5.90
